Time;durP1;ratioP1;P1;durP2;ratioP2;P2;SDS_P1;SDS_P2;PMS_P1;PMS_P2;Temp;Humidity;BMP_temperature;BMP_pressure;BME280_temperature;BME280_humidity;BME280_pressure;Samples;Min_cycle;Max_cycle;Signal;HPM_P1;HPM_P2
2023/07/23 00:01:53;;;;;;;5.85;2.80;;;;;;;21.34;31.29;100605.59;5034752;28;20069;-78
2023/07/23 00:04:21;;;;;;;5.00;2.70;;;;;;;21.33;31.30;100598.31;5036306;28;20056;-78
2023/07/23 00:06:51;;;;;;;4.53;2.80;;;;;;;21.32;31.45;100593.81;5054693;28;20051;-78
2023/07/23 00:09:18;;;;;;;4.82;2.58;;;;;;;21.27;31.06;100576.91;5051795;28;20095;-78
2023/07/23 00:11:46;;;;;;;4.35;2.97;;;;;;;21.24;31.37;100574.50;5037181;28;20041;-79
2023/07/23 00:14:15;;;;;;;5.38;2.92;;;;;;;21.20;31.45;100566.75;5035517;28;20474;-78
2023/07/23 00:16:43;;;;;;;4.95;3.30;;;;;;;21.15;31.27;100564.63;5035982;28;20044;-78
2023/07/23 00:19:15;;;;;;;4.78;2.88;;;;;;;21.10;31.23;100561.63;5052267;28;20334;-78
2023/07/23 00:21:43;;;;;;;5.47;2.85;;;;;;;21.02;31.42;100553.47;5034338;28;20053;-78
2023/07/23 00:24:12;;;;;;;4.53;2.67;;;;;;;20.98;31.64;100550.25;5048280;28;20101;-78
2023/07/23 00:26:40;;;;;;;4.88;2.60;;;;;;;20.89;31.36;100548.72;5033826;28;20033;-78
2023/07/23 00:29:08;;;;;;;5.15;2.70;;;;;;;20.84;31.75;100539.28;5030337;28;20091;-78
2023/07/23 00:31:36;;;;;;;5.18;2.75;;;;;;;20.78;31.47;100538.19;5031157;28;20045;-78
2023/07/23 00:34:04;;;;;;;4.68;2.60;;;;;;;20.73;31.24;100537.97;5033072;28;20041;-78
2023/07/23 00:36:32;;;;;;;5.07;2.80;;;;;;;20.70;31.41;100532.81;5048692;28;20045;-78
2023/07/23 00:39:02;;;;;;;6.22;2.85;;;;;;;20.65;31.69;100525.09;5030413;28;20120;-78
2023/07/23 00:41:32;;;;;;;5.18;2.75;;;;;;;20.65;31.61;100527.88;5028808;28;20047;-77
2023/07/23 00:43:59;;;;;;;4.88;3.00;;;;;;;20.58;32.05;100517.78;5028097;28;20136;-71
2023/07/23 00:46:27;;;;;;;6.07;3.90;;;;;;;20.56;31.70;100514.34;5028408;28;20045;-70
2023/07/23 00:48:56;;;;;;;6.82;3.83;;;;;;;20.54;32.17;100511.75;5026990;28;20484;-72
2023/07/23 00:51:24;;;;;;;6.70;3.40;;;;;;;20.51;32.15;100517.75;5028534;28;20049;-72
2023/07/23 00:53:53;;;;;;;5.57;3.50;;;;;;;20.49;32.41;100510.69;5046805;28;20033;-72
2023/07/23 00:56:21;;;;;;;4.78;2.90;;;;;;;20.48;32.08;100507.03;5041827;28;20068;-72
2023/07/23 00:58:50;;;;;;;4.93;2.92;;;;;;;20.49;32.35;100499.56;5027979;28;20377;-72
2023/07/23 01:01:18;;;;;;;5.07;3.40;;;;;;;20.44;32.46;100494.63;5026916;28;20041;-72
2023/07/23 01:03:46;;;;;;;4.68;3.03;;;;;;;20.44;32.13;100494.63;5023745;28;20699;-72
2023/07/23 01:06:15;;;;;;;7.28;3.00;;;;;;;20.45;32.50;100492.72;5044325;28;20053;-72
2023/07/23 01:08:45;;;;;;;5.53;3.28;;;;;;;20.45;32.23;100487.16;5046390;28;20124;-72
2023/07/23 01:11:14;;;;;;;4.30;2.80;;;;;;;20.44;32.41;100485.44;5027345;28;20049;-72
2023/07/23 01:13:43;;;;;;;4.35;2.65;;;;;;;20.44;32.66;100486.31;5028145;28;20040;-72
2023/07/23 01:16:12;;;;;;;4.60;2.95;;;;;;;20.47;32.56;100479.44;5045307;28;20065;-72
2023/07/23 01:18:41;;;;;;;4.75;3.00;;;;;;;20.46;32.52;100474.94;5028850;28;20041;-71
2023/07/23 01:21:10;;;;;;;4.10;2.88;;;;;;;20.46;32.06;100473.03;5044532;28;20060;-72
2023/07/23 01:23:39;;;;;;;5.22;2.92;;;;;;;20.49;32.07;100472.63;5027880;28;20495;-72
2023/07/23 01:26:08;;;;;;;5.40;3.10;;;;;;;20.48;32.22;100459.78;5027706;28;20115;-72
2023/07/23 01:28:36;;;;;;;4.85;2.97;;;;;;;20.50;32.26;100465.16;5027900;28;20045;-72
2023/07/23 01:31:04;;;;;;;4.90;2.97;;;;;;;20.52;32.38;100457.47;5046023;28;20037;-72
2023/07/23 01:33:32;;;;;;;5.13;3.00;;;;;;;20.54;32.45;100458.09;5030619;28;20040;-72
2023/07/23 01:36:02;;;;;;;4.85;3.25;;;;;;;20.54;32.19;100456.16;5045609;28;20049;-72
2023/07/23 01:38:30;;;;;;;3.83;2.80;;;;;;;20.54;32.20;100447.81;5027986;28;20472;-72
2023/07/23 01:41:01;;;;;;;4.68;2.65;;;;;;;20.58;32.29;100451.91;5025613;28;20057;-72
2023/07/23 01:43:29;;;;;;;5.40;3.28;;;;;;;20.58;32.04;100445.50;5045296;28;20041;-72
2023/07/23 01:45:57;;;;;;;5.18;3.03;;;;;;;20.58;32.28;100437.16;5045652;28;20468;-72
2023/07/23 01:48:25;;;;;;;5.03;3.08;;;;;;;20.59;31.93;100433.34;5027554;28;20056;-72
2023/07/23 01:50:53;;;;;;;4.30;2.80;;;;;;;20.59;31.53;100436.13;5042060;28;20037;-72
2023/07/23 01:53:22;;;;;;;5.18;3.00;;;;;;;20.59;31.87;100422.22;5044102;28;20052;-71
2023/07/23 01:55:49;;;;;;;4.97;3.33;;;;;;;20.59;31.65;100425.00;5045048;28;20037;-72
2023/07/23 01:58:19;;;;;;;5.65;3.38;;;;;;;20.61;31.98;100425.66;5028198;28;20052;-72
2023/07/23 02:00:46;;;;;;;5.60;3.55;;;;;;;20.59;31.75;100419.44;5027630;28;20582;-72
2023/07/23 02:03:14;;;;;;;5.85;3.17;;;;;;;20.58;31.48;100415.78;5031251;28;20443;-72
2023/07/23 02:05:42;;;;;;;5.25;3.10;;;;;;;20.60;31.80;100421.16;5027836;28;20048;-72
2023/07/23 02:08:10;;;;;;;5.07;3.20;;;;;;;20.59;31.93;100423.06;5045915;28;20408;-71
2023/07/23 02:10:38;;;;;;;5.88;3.28;;;;;;;20.59;31.65;100417.53;5042740;28;20049;-72
2023/07/23 02:13:06;;;;;;;4.55;3.22;;;;;;;20.60;31.49;100412.81;5046484;28;20056;-72
2023/07/23 02:15:35;;;;;;;5.28;3.08;;;;;;;20.61;31.76;100408.97;5031210;28;20129;-72
2023/07/23 02:18:03;;;;;;;5.63;3.50;;;;;;;20.59;31.66;100402.75;5031449;28;20415;-72
2023/07/23 02:20:31;;;;;;;5.10;3.35;;;;;;;20.60;31.33;100401.69;5030468;28;20033;-72
2023/07/23 02:22:59;;;;;;;5.00;3.35;;;;;;;20.60;31.51;100407.25;5031359;28;20049;-72
2023/07/23 02:25:27;;;;;;;5.47;3.28;;;;;;;20.60;31.40;100396.13;5048921;28;20037;-72
2023/07/23 02:27:55;;;;;;;5.43;3.40;;;;;;;20.61;31.53;100401.47;5049286;28;20041;-72
2023/07/23 02:30:23;;;;;;;5.25;3.55;;;;;;;20.60;31.24;100394.22;5030794;28;20041;-72
2023/07/23 02:33:51;;;;;;;5.00;3.50;;;;;;;20.58;31.31;100395.44;5049336;28;20040;-72
2023/07/23 02:36:21;;;;;;;5.10;3.30;;;;;;;20.59;31.45;100386.06;5036157;28;20060;-72
2023/07/23 04:40:09;;;;;;;4.43;2.83;;;;;;;20.28;29.71;100356.88;5031185;28;20088;-83
2023/07/23 04:42:37;;;;;;;3.88;2.60;;;;;;;20.29;29.61;100354.97;5032138;28;20052;-82
2023/07/23 04:45:06;;;;;;;4.82;2.55;;;;;;;20.34;29.66;100364.41;5031827;28;20094;-83
2023/07/23 04:47:35;;;;;;;4.00;2.45;;;;;;;20.37;29.95;100360.31;5025300;28;20092;-83
2023/07/23 04:50:03;;;;;;;4.07;2.55;;;;;;;20.37;29.90;100357.53;5019363;28;20504;-83
2023/07/23 04:52:31;;;;;;;4.63;2.90;;;;;;;20.39;29.84;100358.19;5036598;28;20504;-84
2023/07/23 04:54:59;;;;;;;3.60;2.25;;;;;;;20.40;29.82;100359.91;5040757;28;20063;-81
2023/07/23 04:57:28;;;;;;;3.83;2.35;;;;;;;20.44;29.91;100368.69;5028087;28;20049;-83
2023/07/23 04:59:56;;;;;;;4.63;2.60;;;;;;;20.43;29.58;100366.97;5016874;28;20116;-84
2023/07/23 05:02:26;;;;;;;5.15;2.60;;;;;;;20.45;29.59;100364.84;5030251;28;20033;-84
2023/07/23 05:04:55;;;;;;;3.50;2.17;;;;;;;20.46;29.57;100363.75;5027976;28;20112;-86
2023/07/23 05:07:23;;;;;;;5.05;2.50;;;;;;;20.47;29.51;100359.91;5050193;28;20051;-83
2023/07/23 05:09:51;;;;;;;4.13;2.55;;;;;;;20.48;29.26;100354.16;5040370;28;20029;-82
2023/07/23 05:12:19;;;;;;;4.70;2.40;;;;;;;20.49;29.96;100367.00;5049734;28;20042;-82
2023/07/23 05:14:49;;;;;;;4.18;2.40;;;;;;;20.51;29.80;100362.09;5037767;28;20029;-82
2023/07/23 05:17:17;;;;;;;3.50;2.33;;;;;;;20.49;29.43;100363.34;5040393;28;20060;-84
2023/07/23 05:19:45;;;;;;;4.35;2.30;;;;;;;20.51;29.37;100362.09;5029581;28;20064;-83
2023/07/23 05:22:13;;;;;;;4.07;2.28;;;;;;;20.52;29.61;100362.94;5032569;28;20072;-83
2023/07/23 05:24:40;;;;;;;4.22;2.22;;;;;;;20.52;29.72;100360.16;5031163;28;20442;-82
2023/07/23 05:27:08;;;;;;;4.15;2.33;;;;;;;20.54;29.68;100366.34;5036252;28;20095;-84
2023/07/23 05:29:37;;;;;;;5.18;2.30;;;;;;;20.56;29.64;100367.00;5027700;28;20053;-83
2023/07/23 05:32:07;;;;;;;3.55;2.13;;;;;;;20.58;29.25;100360.16;5026614;28;20045;-84
2023/07/23 05:34:35;;;;;;;4.20;2.25;;;;;;;20.57;29.33;100363.16;5040536;28;20045;-84
2023/07/23 05:37:03;;;;;;;4.72;2.35;;;;;;;20.60;29.62;100366.41;5039611;28;20045;-85
2023/07/23 05:39:31;;;;;;;4.43;2.30;;;;;;;20.60;29.37;100360.00;5029433;28;20069;-84
2023/07/23 05:41:59;;;;;;;3.95;2.10;;;;;;;20.64;29.57;100358.47;5018018;28;20220;-84
2023/07/23 05:44:28;;;;;;;3.42;2.00;;;;;;;20.64;29.39;100358.47;5032589;28;20053;-83
2023/07/23 05:46:56;;;;;;;4.05;2.13;;;;;;;20.66;29.61;100364.69;5031951;28;20492;-83
2023/07/23 05:49:25;;;;;;;4.10;2.40;;;;;;;20.70;29.30;100365.97;5014210;28;20117;-84
2023/07/23 05:51:53;;;;;;;3.90;2.20;;;;;;;20.68;29.19;100365.34;5026440;28;20045;-84
2023/07/23 05:54:21;;;;;;;3.75;1.90;;;;;;;20.68;29.62;100363.41;5040887;28;20057;-84
2023/07/23 05:56:49;;;;;;;3.35;2.28;;;;;;;20.70;29.04;100358.47;5037661;28;20071;-84
2023/07/23 05:59:17;;;;;;;3.97;1.98;;;;;;;20.70;29.38;100360.41;5040234;28;20076;-84
2023/07/23 06:01:45;;;;;;;3.50;1.90;;;;;;;20.70;28.97;100364.03;5030898;28;20156;-84
2023/07/23 06:04:15;;;;;;;3.70;2.15;;;;;;;20.71;29.20;100357.41;5015225;28;20045;-84
2023/07/23 06:06:45;;;;;;;3.05;1.95;;;;;;;20.71;29.09;100360.19;5017679;28;20469;-84
2023/07/23 06:09:14;;;;;;;4.10;2.13;;;;;;;20.70;29.19;100360.41;5023656;28;20385;-84
2023/07/23 06:11:42;;;;;;;4.28;2.10;;;;;;;20.70;29.15;100366.81;5038508;28;20050;-83
2023/07/23 06:14:10;;;;;;;3.75;1.95;;;;;;;20.72;29.24;100355.50;5042435;28;20276;-82
2023/07/23 06:16:38;;;;;;;3.22;1.85;;;;;;;20.71;29.08;100362.13;5035490;28;20059;-84
2023/07/23 06:19:06;;;;;;;3.40;1.90;;;;;;;20.73;29.31;100366.41;5032420;28;20030;-84
2023/07/23 06:21:34;;;;;;;3.42;2.20;;;;;;;20.75;29.20;100358.72;5034735;28;20050;-83
2023/07/23 06:24:04;;;;;;;4.22;2.22;;;;;;;20.80;28.86;100363.63;5017843;28;20104;-84
2023/07/23 06:26:32;;;;;;;4.53;2.17;;;;;;;20.77;29.17;100356.59;5037421;28;20094;-84
2023/07/23 06:29:00;;;;;;;4.55;2.28;;;;;;;20.78;29.57;100357.41;5037249;28;20066;-84
2023/07/23 06:31:28;;;;;;;3.22;1.90;;;;;;;20.80;29.17;100355.28;5029183;28;20045;-84
2023/07/23 06:33:56;;;;;;;4.72;2.05;;;;;;;20.81;29.17;100367.25;5019004;28;20061;-83
2023/07/23 06:36:24;;;;;;;3.88;2.20;;;;;;;20.81;29.13;100342.22;5012234;28;20045;-84
2023/07/23 06:38:52;;;;;;;4.60;2.25;;;;;;;20.82;28.84;100355.94;5015937;28;20128;-82
2023/07/23 06:41:21;;;;;;;3.65;2.03;;;;;;;20.84;28.98;100351.03;5017679;28;20053;-84
2023/07/23 06:43:49;;;;;;;4.38;2.10;;;;;;;20.83;29.15;100356.78;5038524;28;20036;-83
2023/07/23 06:46:20;;;;;;;3.90;2.33;;;;;;;20.83;29.13;100340.09;5019871;28;20041;-84
2023/07/23 06:48:48;;;;;;;3.88;2.00;;;;;;;20.83;29.22;100349.31;5032758;28;20046;-84
2023/07/23 06:51:16;;;;;;;3.88;1.85;;;;;;;20.84;29.32;100348.25;5023019;28;20048;-84
2023/07/23 06:53:44;;;;;;;3.75;2.17;;;;;;;20.84;29.27;100348.25;5042769;28;20046;-83
2023/07/23 06:56:13;;;;;;;4.00;2.30;;;;;;;20.85;28.92;100343.53;5055020;28;20045;-82
2023/07/23 06:58:43;;;;;;;3.42;2.25;;;;;;;20.89;28.84;100350.34;5060757;28;20106;-84
2023/07/23 07:01:11;;;;;;;5.65;2.78;;;;;;;20.85;28.71;100352.72;5047254;28;20073;-83
2023/07/23 07:03:41;;;;;;;4.13;2.40;;;;;;;20.84;28.63;100351.03;5030730;28;20042;-85
2023/07/23 07:06:12;;;;;;;;;;;;;;;20.56;29.36;100355.88;5044098;28;20061;-84
2023/07/23 07:08:41;;;;;;;4.38;2.17;;;;;;;20.81;28.66;100357.00;5016614;28;19925;-83
2023/07/23 07:11:14;;;;;;;3.97;2.30;;;;;;;20.84;28.97;100359.34;5021403;28;20046;-83
2023/07/23 07:13:46;;;;;;;3.67;2.10;;;;;;;20.84;28.80;100356.59;5019663;28;20508;-83
2023/07/23 07:16:16;;;;;;;3.88;2.03;;;;;;;20.83;29.27;100360.44;5030035;28;20049;-84
2023/07/23 07:18:46;;;;;;;4.28;2.00;;;;;;;20.83;28.99;100357.66;5006068;28;20041;-84
2023/07/23 07:21:16;;;;;;;3.72;2.30;;;;;;;20.84;29.32;100364.06;5034825;28;20045;-84
2023/07/23 07:23:44;;;;;;;3.90;2.03;;;;;;;20.83;29.73;100365.13;5030133;28;20660;-83
2023/07/23 07:26:12;;;;;;;4.18;1.75;;;;;;;20.80;29.65;100366.41;5026154;28;20095;-83
2023/07/23 07:28:40;;;;;;;4.22;1.90;;;;;;;20.81;29.56;100364.47;5015811;28;20053;-84
2023/07/23 07:31:12;;;;;;;3.55;2.00;;;;;;;20.81;29.74;100361.69;5020076;28;20052;-84
2023/07/23 07:33:40;;;;;;;4.93;2.10;;;;;;;20.78;30.13;100365.75;5039478;28;20054;-85
2023/07/23 07:36:08;;;;;;;4.47;1.90;;;;;;;20.78;30.19;100357.41;5032423;28;20037;-85
2023/07/23 07:38:36;;;;;;;3.47;2.03;;;;;;;20.78;29.77;100360.19;5020042;28;20125;-84
2023/07/23 07:41:04;;;;;;;4.07;1.80;;;;;;;20.78;30.29;100363.84;5016594;28;20068;-84
2023/07/23 07:43:32;;;;;;;3.50;2.00;;;;;;;20.78;30.22;100362.97;5035839;28;20042;-84
2023/07/23 07:46:02;;;;;;;4.57;2.17;;;;;;;20.80;30.25;100357.19;5032066;28;20038;-84
2023/07/23 07:48:32;;;;;;;3.63;2.03;;;;;;;20.81;30.09;100365.34;5017530;28;20064;-84
2023/07/23 07:51:02;;;;;;;4.15;2.15;;;;;;;20.80;30.01;100359.97;5026699;28;20486;-84
2023/07/23 07:53:31;;;;;;;3.17;1.80;;;;;;;20.80;29.96;100354.41;5029382;28;20050;-85
2023/07/23 07:56:00;;;;;;;3.90;1.90;;;;;;;20.80;29.88;100371.09;5032567;28;20096;-85
2023/07/23 07:58:29;;;;;;;5.40;2.25;;;;;;;20.80;29.76;100365.53;5018634;28;20052;-84
2023/07/23 08:00:58;;;;;;;4.35;2.22;;;;;;;20.79;30.27;100373.03;5010861;28;20136;-85
2023/07/23 08:03:28;;;;;;;4.28;2.30;;;;;;;20.80;29.92;100379.44;5043066;28;20076;-84
2023/07/23 08:06:00;;;;;;;3.50;2.03;;;;;;;20.79;30.36;100386.94;5034477;28;20041;-80
2023/07/23 08:08:30;;;;;;;4.82;2.00;;;;;;;20.78;30.62;100393.56;5034828;28;20037;-78
2023/07/23 08:11:00;;;;;;;3.60;2.25;;;;;;;20.77;30.40;100381.63;5021013;28;20060;-80
2023/07/23 08:13:29;;;;;;;5.35;2.03;;;;;;;20.77;30.90;100391.88;5014249;28;20055;-78
2023/07/23 08:15:57;;;;;;;3.47;2.08;;;;;;;20.75;31.08;100391.22;5032835;28;20033;-79
2023/07/23 08:18:26;;;;;;;4.95;1.77;;;;;;;20.74;31.30;100393.16;5036175;28;20044;-78
2023/07/23 08:20:57;;;;;;;3.97;2.13;;;;;;;20.73;31.75;100399.78;5030992;28;20065;-79
2023/07/23 08:23:27;;;;;;;3.20;1.65;;;;;;;20.74;31.23;100406.19;5021681;28;20051;-80
2023/07/23 08:25:57;;;;;;;3.80;2.10;;;;;;;20.73;31.50;100398.91;5031505;28;20512;-80
2023/07/23 08:28:29;;;;;;;3.72;1.70;;;;;;;20.71;31.55;100406.59;5018222;28;20053;-79
2023/07/23 08:30:57;;;;;;;3.30;1.80;;;;;;;20.67;31.76;100417.31;5035315;28;20037;-79
2023/07/23 08:33:28;;;;;;;4.15;1.80;;;;;;;20.67;31.89;100410.91;5011846;28;20048;-80
2023/07/23 08:35:57;;;;;;;3.17;1.88;;;;;;;20.65;32.51;100407.47;5015198;28;20064;-80
2023/07/23 08:38:27;;;;;;;3.05;1.77;;;;;;;20.65;32.81;100418.59;5037572;28;20045;-78
2023/07/23 08:40:58;;;;;;;3.55;1.70;;;;;;;20.64;33.40;100417.72;5047635;28;20038;-78
2023/07/23 08:44:04;;;;;;;3.72;1.92;;;;;;;20.59;33.55;100420.28;5033185;28;20104;-80
2023/07/23 08:46:32;;;;;;;3.70;1.88;;;;;;;20.57;33.01;100421.53;5043022;28;20547;-79
2023/07/23 08:49:04;;;;;;;3.13;1.88;;;;;;;20.60;33.88;100410.91;5022383;28;20476;-79
2023/07/23 08:51:40;;;;;;;3.22;1.50;;;;;;;20.55;33.54;100413.41;5035458;28;20144;-80
2023/07/23 08:54:10;;;;;;;3.15;1.80;;;;;;;20.57;33.37;100421.53;5033735;28;20050;-78
2023/07/23 08:56:40;;;;;;;3.10;1.80;;;;;;;20.53;33.91;100418.31;5049070;28;20061;-78
2023/07/23 08:59:12;;;;;;;3.70;1.88;;;;;;;20.51;33.85;100419.59;5030819;28;20132;-81
2023/07/23 09:01:41;;;;;;;4.30;2.00;;;;;;;20.51;34.33;100422.38;5023900;28;20560;-79
2023/07/23 09:04:12;;;;;;;3.38;1.90;;;;;;;20.50;34.06;100417.88;5039876;28;20041;-82
2023/07/23 09:06:42;;;;;;;3.95;1.83;;;;;;;20.50;34.33;100429.00;5013594;28;20104;-79
2023/07/23 09:09:13;;;;;;;4.10;2.08;;;;;;;20.48;34.50;100423.66;5021774;28;20140;-78
2023/07/23 09:12:04;;;;;;;3.58;1.75;;;;;;;20.43;34.95;100417.88;5001167;28;20045;-85
2023/07/23 09:21:22;;;;;;;3.45;1.92;;;;;;;20.42;34.84;100423.63;5039560;28;20042;-84
2023/07/23 09:23:53;;;;;;;2.97;1.70;;;;;;;20.42;35.38;100418.94;5036206;28;20104;-84
2023/07/23 09:26:25;;;;;;;3.78;1.80;;;;;;;20.44;35.64;100418.72;5047335;28;20045;-83
2023/07/23 09:28:57;;;;;;;2.57;1.63;;;;;;;20.37;35.56;100418.69;5046211;28;20045;-84
2023/07/23 09:31:27;;;;;;;2.70;1.60;;;;;;;20.36;35.64;100420.63;5046118;28;20052;-84
2023/07/23 09:33:57;;;;;;;3.10;1.70;;;;;;;20.34;35.48;100416.34;5053606;28;20506;-85
2023/07/23 09:36:26;;;;;;;3.83;1.98;;;;;;;20.32;36.02;100422.09;5030657;28;20037;-83
2023/07/23 09:38:59;;;;;;;2.50;1.63;;;;;;;20.35;36.64;100427.25;5039159;28;20097;-84
2023/07/23 09:41:32;;;;;;;3.15;1.80;;;;;;;20.32;35.89;100424.88;5046179;28;20056;-84
2023/07/23 09:44:02;;;;;;;2.97;1.65;;;;;;;20.27;36.09;100427.44;5039495;28;20041;-83
2023/07/23 09:46:32;;;;;;;3.00;1.70;;;;;;;20.26;36.15;100422.94;5045022;28;20049;-84
2023/07/23 09:49:00;;;;;;;3.45;1.75;;;;;;;20.24;35.80;100421.44;5029212;28;20064;-84
2023/07/23 09:51:31;;;;;;;2.30;1.45;;;;;;;20.20;36.18;100409.88;5041354;28;20029;-82
2023/07/23 09:54:00;;;;;;;3.08;1.50;;;;;;;20.19;36.31;100427.63;5050567;28;20100;-84
2023/07/23 09:56:32;;;;;;;3.13;1.60;;;;;;;20.21;36.63;100419.06;5043994;28;20049;-84
2023/07/23 09:59:02;;;;;;;3.50;1.63;;;;;;;20.15;36.62;100419.91;5018776;28;20037;-80
2023/07/23 10:02:24;;;;;;;2.17;1.40;;;;;;;20.13;36.50;100419.25;4955024;28;20058;-80
2023/07/23 10:04:56;;;;;;;2.50;1.42;;;;;;;20.16;36.17;100416.06;4966939;28;20060;-84
2023/07/23 10:07:54;;;;;;;2.47;1.48;;;;;;;20.14;37.22;100420.97;5001586;28;20420;-81
2023/07/23 10:10:23;;;;;;;3.03;1.40;;;;;;;20.15;36.50;100423.53;5022105;28;20061;-81
2023/07/23 10:13:02;;;;;;;2.42;1.27;;;;;;;20.18;36.83;100414.81;5010979;28;20095;-79
2023/07/23 10:16:03;;;;;;;2.60;1.45;;;;;;;20.21;36.96;100422.69;5022064;28;20049;-81
2023/07/23 10:22:39;;;;;;;4.40;1.27;;;;;;;20.17;36.10;100421.41;4963405;28;20413;-80
2023/07/23 10:25:24;;;;;;;2.42;1.25;;;;;;;20.24;36.98;100432.56;5039561;28;20052;-78
2023/07/23 10:28:13;;;;;;;2.13;1.20;;;;;;;20.25;37.03;100418.44;5044525;28;20076;-81
2023/07/23 10:30:52;;;;;;;2.45;1.17;;;;;;;20.24;36.20;100427.00;5021573;28;20423;-81
2023/07/23 10:33:33;;;;;;;2.25;1.38;;;;;;;20.29;37.01;100425.28;5029547;28;20132;-80
2023/07/23 10:36:16;;;;;;;2.80;1.17;;;;;;;20.28;36.56;100436.66;5009098;28;20139;-78
2023/07/23 10:39:20;;;;;;;1.85;1.20;;;;;;;20.27;36.42;100421.88;5046551;28;20069;-81
2023/07/23 10:42:08;;;;;;;2.50;1.30;;;;;;;20.33;36.78;100429.38;5042510;28;20099;-78
2023/07/23 10:44:40;;;;;;;2.88;1.40;;;;;;;20.32;36.46;100427.66;5038471;28;20038;-81
2023/07/23 10:47:31;;;;;;;2.25;1.17;;;;;;;20.28;36.53;100422.75;5031153;28;20052;-80
2023/07/23 10:50:15;;;;;;;2.00;1.30;;;;;;;20.32;36.65;100424.03;5025409;28;20037;-81
2023/07/23 10:52:44;;;;;;;2.45;1.45;;;;;;;20.33;36.43;100431.31;5036685;28;20044;-80
2023/07/23 10:55:12;;;;;;;2.30;1.20;;;;;;;20.33;36.72;100434.09;5040404;28;20124;-82
2023/07/23 10:57:42;;;;;;;1.70;1.00;;;;;;;20.34;36.79;100421.91;5041623;28;20049;-81
2023/07/23 11:00:21;;;;;;;3.03;1.48;;;;;;;20.38;37.16;100425.97;5043859;28;20408;-81
2023/07/23 11:02:54;;;;;;;2.78;1.27;;;;;;;20.34;36.90;100421.91;5038904;28;20037;-82
2023/07/23 11:05:22;;;;;;;2.58;1.30;;;;;;;20.36;36.65;100428.13;5045211;28;20496;-81
2023/07/23 11:08:12;;;;;;;2.45;1.30;;;;;;;20.39;36.88;100424.91;5017207;28;20052;-82
2023/07/23 11:10:48;;;;;;;2.40;1.35;;;;;;;20.40;37.17;100418.28;5036888;28;20159;-81
2023/07/23 11:13:16;;;;;;;2.10;1.20;;;;;;;20.38;37.07;100434.31;5015624;28;20037;-80
2023/07/23 11:15:50;;;;;;;3.30;1.42;;;;;;;20.42;37.28;100426.41;5021791;28;20049;-83
2023/07/23 11:18:19;;;;;;;1.95;1.20;;;;;;;20.43;36.86;100423.44;5015847;28;20120;-82
2023/07/23 11:20:48;;;;;;;2.40;1.20;;;;;;;20.43;36.73;100423.44;5036491;28;20048;-81
2023/07/23 11:23:20;;;;;;;2.33;1.00;;;;;;;20.46;36.54;100413.78;5018197;28;20037;-81
2023/07/23 11:25:49;;;;;;;2.67;1.33;;;;;;;20.47;36.56;100426.63;5021011;28;20127;-81
2023/07/23 11:28:46;;;;;;;2.13;1.13;;;;;;;20.50;37.14;100420.66;5002626;28;20042;-80
2023/07/23 11:31:16;;;;;;;1.85;1.13;;;;;;;20.51;36.86;100419.59;4988603;28;20041;-81
2023/07/23 11:33:44;;;;;;;1.60;1.05;;;;;;;20.51;36.74;100420.47;5034541;28;20818;-80
2023/07/23 11:36:18;;;;;;;1.45;1.02;;;;;;;20.55;36.29;100415.31;5017725;28;20029;-80
2023/07/23 11:38:46;;;;;;;2.53;1.05;;;;;;;20.55;36.54;100423.66;5019915;28;20037;-79
2023/07/23 11:41:14;;;;;;;1.80;1.40;;;;;;;20.58;36.81;100428.81;5030066;28;20053;-81
2023/07/23 19:00:06;;;;;;;0.82;0.50;;;;;;;21.96;39.13;100274.72;5034611;28;20411;-87
2023/07/23 19:02:34;;;;;;;1.10;0.70;;;;;;;21.98;39.15;100283.72;5024433;28;20054;-79
2023/07/23 19:05:02;;;;;;;0.77;0.50;;;;;;;21.98;39.35;100290.16;5029378;28;20067;-78
2023/07/23 19:07:30;;;;;;;1.48;0.60;;;;;;;21.96;39.60;100280.28;5037794;28;20045;-79
2023/07/23 19:09:58;;;;;;;2.45;0.80;;;;;;;21.92;39.72;100282.69;5030442;28;20446;-80
2023/07/23 19:12:26;;;;;;;1.70;0.60;;;;;;;21.92;39.84;100287.41;5035891;28;20065;-80
2023/07/23 19:14:54;;;;;;;1.33;0.57;;;;;;;21.88;40.14;100293.38;5027293;28;20128;-79
2023/07/23 19:17:23;;;;;;;0.63;0.40;;;;;;;21.87;40.78;100296.38;5030859;28;20073;-80
2023/07/23 19:19:51;;;;;;;1.45;0.68;;;;;;;21.82;40.29;100296.22;5031321;28;20044;-82
2023/07/23 19:22:19;;;;;;;2.67;1.00;;;;;;;21.78;40.94;100301.34;5017819;28;20048;-81
2023/07/23 19:24:47;;;;;;;1.55;0.93;;;;;;;21.76;41.39;100299.88;5036164;28;20038;-80
2023/07/23 19:27:16;;;;;;;1.83;0.90;;;;;;;21.68;41.71;100301.00;5035898;28;20038;-80
2023/07/23 19:29:44;;;;;;;1.38;0.77;;;;;;;21.63;42.06;100300.78;5032726;28;20418;-80
2023/07/23 19:32:13;;;;;;;1.83;0.80;;;;;;;21.57;42.05;100296.09;5037635;28;20041;-81
2023/07/23 19:34:42;;;;;;;1.50;0.98;;;;;;;21.55;42.53;100295.47;5016907;28;20500;-81
2023/07/23 19:37:11;;;;;;;1.30;0.73;;;;;;;21.48;42.61;100297.41;5030933;28;20049;-81
2023/07/23 19:39:39;;;;;;;1.17;0.70;;;;;;;21.44;42.70;100294.19;5032499;28;20172;-82
2023/07/23 19:42:07;;;;;;;1.75;0.90;;;;;;;21.40;42.70;100298.50;5031500;28;20344;-81
2023/07/23 19:44:44;;;;;;;1.48;0.70;;;;;;;21.36;43.22;100300.00;5027892;28;20232;-82
2023/07/23 19:47:14;;;;;;;1.02;0.65;;;;;;;21.30;42.87;100292.53;5030756;28;20049;-81
2023/07/23 19:49:44;;;;;;;0.88;0.65;;;;;;;21.31;43.33;100296.19;5035662;28;20045;-81
2023/07/23 19:52:12;;;;;;;1.73;0.80;;;;;;;21.23;43.22;100291.69;5036190;28;20049;-82
2023/07/23 19:54:40;;;;;;;0.75;0.60;;;;;;;21.19;43.41;100293.16;5035799;28;20044;-82
2023/07/23 19:57:09;;;;;;;1.77;0.70;;;;;;;21.16;43.41;100285.28;5018597;28;20041;-81
2023/07/23 19:59:37;;;;;;;1.38;0.85;;;;;;;21.14;43.36;100290.19;5016563;28;20034;-79
2023/07/23 20:02:05;;;;;;;0.82;0.68;;;;;;;21.12;43.33;100295.13;5031700;28;20064;-80
2023/07/23 20:04:35;;;;;;;1.02;0.60;;;;;;;21.11;43.80;100293.41;5030946;28;20773;-78
2023/07/23 20:07:05;;;;;;;1.60;0.75;;;;;;;21.07;44.13;100293.00;5038553;28;20041;-81
2023/07/23 20:09:33;;;;;;;1.52;0.80;;;;;;;21.06;43.68;100296.00;5028347;28;20045;-80
2023/07/23 20:12:03;;;;;;;1.30;0.90;;;;;;;21.04;43.93;100307.34;5037997;28;20045;-80
2023/07/23 20:14:31;;;;;;;1.20;0.60;;;;;;;21.02;44.13;100303.94;5013788;28;20045;-80
2023/07/23 20:17:13;;;;;;;1.85;0.98;;;;;;;21.02;45.03;100303.94;5010142;28;20038;-86
2023/07/23 20:19:41;;;;;;;1.27;0.80;;;;;;;20.95;44.55;100300.28;5027025;28;20041;-60
2023/07/23 20:22:10;;;;;;;1.58;0.70;;;;;;;20.99;44.23;100307.13;5047222;28;20064;-59
2023/07/23 20:24:38;;;;;;;1.48;1.00;;;;;;;20.97;44.38;100306.50;5036008;28;20053;-60
2023/07/23 20:27:07;;;;;;;1.88;0.80;;;;;;;20.98;44.26;100301.78;5046384;28;20135;-60
2023/07/23 20:29:36;;;;;;;1.67;0.90;;;;;;;20.96;44.60;100290.00;5040280;28;20245;-61
2023/07/23 20:32:04;;;;;;;2.53;1.05;;;;;;;20.96;44.22;100299.22;5043193;28;20048;-59
2023/07/23 20:34:33;;;;;;;1.85;1.00;;;;;;;20.97;44.26;100300.06;5025922;28;20048;-74
2023/07/23 20:37:01;;;;;;;1.80;1.00;;;;;;;20.95;44.27;100291.94;5043989;28;20045;-69
2023/07/23 20:39:31;;;;;;;2.45;1.15;;;;;;;20.96;44.60;100284.44;5041091;28;20523;-70
2023/07/23 20:41:59;;;;;;;1.60;1.10;;;;;;;20.92;44.38;100286.81;5027714;28;20044;-70
2023/07/23 20:44:28;;;;;;;1.75;0.90;;;;;;;20.91;44.54;100287.03;5043847;28;20044;-69
2023/07/23 20:46:56;;;;;;;1.75;1.10;;;;;;;20.89;44.40;100284.47;5040390;28;20051;-69
2023/07/23 20:49:24;;;;;;;1.83;1.02;;;;;;;20.88;44.39;100296.66;5028012;28;20045;-69
2023/07/23 20:51:52;;;;;;;2.05;1.30;;;;;;;20.87;44.49;100303.28;5044183;28;20452;-69
2023/07/23 20:54:20;;;;;;;2.55;1.10;;;;;;;20.86;44.41;100297.97;5051274;28;20073;-69
2023/07/23 20:56:49;;;;;;;2.78;1.40;;;;;;;20.87;44.63;100292.16;5035448;28;20055;-69
2023/07/23 20:59:17;;;;;;;2.08;1.20;;;;;;;20.84;44.74;100287.03;5048821;28;20596;-70
2023/07/23 21:01:45;;;;;;;2.28;1.40;;;;;;;20.81;44.64;100284.69;5045992;28;20047;-69
2023/07/23 21:04:13;;;;;;;2.65;1.33;;;;;;;20.79;44.80;100281.25;5049430;28;20102;-69
2023/07/23 21:06:41;;;;;;;3.25;1.58;;;;;;;20.80;44.48;100282.09;5029937;28;20053;-70
2023/07/23 21:09:09;;;;;;;2.63;1.48;;;;;;;20.78;44.64;100276.75;5047752;28;20053;-69